sensor_id;sensor_type;location;lat;lon;timestamp;P1;durP1;ratioP1;P2;durP2;ratioP2
4244;SDS011;2136;48.502;9.194;2023-04-06T00:00:09;15.00;;;9.70;;
4244;SDS011;2136;48.502;9.194;2023-04-06T00:02:38;16.70;;;7.67;;
4244;SDS011;2136;48.502;9.194;2023-04-06T00:05:06;16.30;;;8.03;;
4244;SDS011;2136;48.502;9.194;2023-04-06T00:07:33;14.40;;;8.37;;
4244;SDS011;2136;48.502;9.194;2023-04-06T00:10:00;13.90;;;8.70;;
4244;SDS011;2136;48.502;9.194;2023-04-06T00:12:27;11.77;;;7.87;;
4244;SDS011;2136;48.502;9.194;2023-04-06T00:14:55;10.50;;;8.67;;
4244;SDS011;2136;48.502;9.194;2023-04-06T00:17:22;11.40;;;9.57;;
4244;SDS011;2136;48.502;9.194;2023-04-06T00:19:50;12.00;;;8.77;;
4244;SDS011;2136;48.502;9.194;2023-04-06T00:22:17;8.80;;;7.90;;
4244;SDS011;2136;48.502;9.194;2023-04-06T00:24:44;10.50;;;8.47;;
4244;SDS011;2136;48.502;9.194;2023-04-06T00:27:11;10.97;;;8.70;;
4244;SDS011;2136;48.502;9.194;2023-04-06T00:29:39;11.00;;;8.40;;
4244;SDS011;2136;48.502;9.194;2023-04-06T00:32:06;11.60;;;7.70;;
4244;SDS011;2136;48.502;9.194;2023-04-06T00:34:33;16.40;;;8.80;;
4244;SDS011;2136;48.502;9.194;2023-04-06T00:37:01;22.40;;;13.20;;
4244;SDS011;2136;48.502;9.194;2023-04-06T00:39:28;41.63;;;19.83;;
4244;SDS011;2136;48.502;9.194;2023-04-06T00:41:55;26.90;;;14.13;;
4244;SDS011;2136;48.502;9.194;2023-04-06T00:44:24;25.20;;;13.10;;
4244;SDS011;2136;48.502;9.194;2023-04-06T00:46:51;17.13;;;10.23;;
4244;SDS011;2136;48.502;9.194;2023-04-06T00:49:18;11.60;;;9.03;;
4244;SDS011;2136;48.502;9.194;2023-04-06T00:51:45;12.13;;;9.90;;
4244;SDS011;2136;48.502;9.194;2023-04-06T00:54:13;13.50;;;9.50;;
4244;SDS011;2136;48.502;9.194;2023-04-06T00:56:41;14.90;;;10.20;;
4244;SDS011;2136;48.502;9.194;2023-04-06T00:59:08;14.03;;;8.27;;
4244;SDS011;2136;48.502;9.194;2023-04-06T01:01:36;15.93;;;9.90;;
4244;SDS011;2136;48.502;9.194;2023-04-06T01:04:03;10.33;;;8.93;;
4244;SDS011;2136;48.502;9.194;2023-04-06T01:06:30;12.50;;;8.90;;
4244;SDS011;2136;48.502;9.194;2023-04-06T01:08:57;10.17;;;8.43;;
4244;SDS011;2136;48.502;9.194;2023-04-06T01:11:25;12.35;;;9.35;;
4244;SDS011;2136;48.502;9.194;2023-04-06T01:13:52;10.70;;;8.10;;
4244;SDS011;2136;48.502;9.194;2023-04-06T01:16:19;17.30;;;9.43;;
4244;SDS011;2136;48.502;9.194;2023-04-06T01:18:46;11.35;;;8.50;;
4244;SDS011;2136;48.502;9.194;2023-04-06T01:21:13;13.20;;;8.47;;
4244;SDS011;2136;48.502;9.194;2023-04-06T01:23:43;15.50;;;9.25;;
4244;SDS011;2136;48.502;9.194;2023-04-06T01:26:11;13.33;;;8.53;;
4244;SDS011;2136;48.502;9.194;2023-04-06T01:28:38;10.25;;;8.35;;
4244;SDS011;2136;48.502;9.194;2023-04-06T01:31:06;11.40;;;8.70;;
4244;SDS011;2136;48.502;9.194;2023-04-06T01:33:34;15.27;;;8.80;;
4244;SDS011;2136;48.502;9.194;2023-04-06T01:36:01;14.35;;;9.43;;
4244;SDS011;2136;48.502;9.194;2023-04-06T01:38:28;12.70;;;8.63;;
4244;SDS011;2136;48.502;9.194;2023-04-06T01:40:56;15.20;;;9.40;;
4244;SDS011;2136;48.502;9.194;2023-04-06T01:43:23;12.45;;;9.38;;
4244;SDS011;2136;48.502;9.194;2023-04-06T01:45:50;12.77;;;9.75;;
4244;SDS011;2136;48.502;9.194;2023-04-06T01:48:18;15.05;;;9.52;;
4244;SDS011;2136;48.502;9.194;2023-04-06T01:50:45;11.18;;;8.15;;
4244;SDS011;2136;48.502;9.194;2023-04-06T01:53:12;12.90;;;8.88;;
4244;SDS011;2136;48.502;9.194;2023-04-06T01:55:39;15.77;;;9.02;;
4244;SDS011;2136;48.502;9.194;2023-04-06T01:58:07;11.17;;;8.13;;
4244;SDS011;2136;48.502;9.194;2023-04-06T02:00:34;12.77;;;9.03;;
4244;SDS011;2136;48.502;9.194;2023-04-06T02:03:01;11.60;;;8.60;;
4244;SDS011;2136;48.502;9.194;2023-04-06T02:05:29;15.38;;;9.60;;
4244;SDS011;2136;48.502;9.194;2023-04-06T02:07:58;11.10;;;9.30;;
4244;SDS011;2136;48.502;9.194;2023-04-06T02:10:25;15.60;;;9.90;;
4244;SDS011;2136;48.502;9.194;2023-04-06T02:12:52;12.95;;;8.77;;
4244;SDS011;2136;48.502;9.194;2023-04-06T02:15:20;13.50;;;9.05;;
4244;SDS011;2136;48.502;9.194;2023-04-06T02:17:47;9.25;;;7.60;;
4244;SDS011;2136;48.502;9.194;2023-04-06T02:20:14;12.57;;;8.45;;
4244;SDS011;2136;48.502;9.194;2023-04-06T02:22:41;11.77;;;8.07;;
4244;SDS011;2136;48.502;9.194;2023-04-06T02:25:08;15.65;;;8.35;;
4244;SDS011;2136;48.502;9.194;2023-04-06T02:27:35;10.68;;;7.80;;
4244;SDS011;2136;48.502;9.194;2023-04-06T02:30:02;12.43;;;9.15;;
4244;SDS011;2136;48.502;9.194;2023-04-06T02:32:31;10.95;;;7.60;;
4244;SDS011;2136;48.502;9.194;2023-04-06T02:34:58;16.10;;;10.18;;
4244;SDS011;2136;48.502;9.194;2023-04-06T02:37:25;11.57;;;8.52;;
4244;SDS011;2136;48.502;9.194;2023-04-06T02:39:52;15.38;;;9.73;;
4244;SDS011;2136;48.502;9.194;2023-04-06T02:42:20;10.07;;;7.97;;
4244;SDS011;2136;48.502;9.194;2023-04-06T02:44:47;13.38;;;9.05;;
4244;SDS011;2136;48.502;9.194;2023-04-06T02:47:14;10.95;;;8.27;;
4244;SDS011;2136;48.502;9.194;2023-04-06T02:49:42;12.95;;;9.05;;
4244;SDS011;2136;48.502;9.194;2023-04-06T02:52:09;11.80;;;9.60;;
4244;SDS011;2136;48.502;9.194;2023-04-06T02:54:36;13.05;;;8.05;;
4244;SDS011;2136;48.502;9.194;2023-04-06T02:57:03;14.30;;;8.95;;
4244;SDS011;2136;48.502;9.194;2023-04-06T02:59:30;16.25;;;9.75;;
4244;SDS011;2136;48.502;9.194;2023-04-06T03:01:57;13.90;;;9.38;;
4244;SDS011;2136;48.502;9.194;2023-04-06T03:04:24;11.88;;;8.27;;
4244;SDS011;2136;48.502;9.194;2023-04-06T03:06:53;16.80;;;9.20;;
4244;SDS011;2136;48.502;9.194;2023-04-06T03:09:20;14.25;;;9.68;;
4244;SDS011;2136;48.502;9.194;2023-04-06T03:11:47;13.70;;;8.57;;
4244;SDS011;2136;48.502;9.194;2023-04-06T03:14:14;13.35;;;8.82;;
4244;SDS011;2136;48.502;9.194;2023-04-06T03:16:42;18.52;;;11.45;;
4244;SDS011;2136;48.502;9.194;2023-04-06T03:19:09;10.77;;;8.85;;
4244;SDS011;2136;48.502;9.194;2023-04-06T03:21:36;13.20;;;9.63;;
4244;SDS011;2136;48.502;9.194;2023-04-06T03:24:05;12.57;;;9.60;;
4244;SDS011;2136;48.502;9.194;2023-04-06T03:26:33;13.05;;;9.38;;
4244;SDS011;2136;48.502;9.194;2023-04-06T03:29:00;17.35;;;9.13;;
4244;SDS011;2136;48.502;9.194;2023-04-06T03:31:27;12.23;;;9.07;;
4244;SDS011;2136;48.502;9.194;2023-04-06T03:33:54;18.23;;;9.95;;
4244;SDS011;2136;48.502;9.194;2023-04-06T03:36:21;16.58;;;8.75;;
4244;SDS011;2136;48.502;9.194;2023-04-06T03:38:47;15.50;;;8.77;;
4244;SDS011;2136;48.502;9.194;2023-04-06T03:41:16;10.20;;;8.52;;
4244;SDS011;2136;48.502;9.194;2023-04-06T03:43:43;12.15;;;9.02;;
4244;SDS011;2136;48.502;9.194;2023-04-06T03:46:10;11.50;;;8.88;;
4244;SDS011;2136;48.502;9.194;2023-04-06T03:48:37;12.00;;;9.10;;
4244;SDS011;2136;48.502;9.194;2023-04-06T03:51:04;12.55;;;8.63;;
4244;SDS011;2136;48.502;9.194;2023-04-06T03:53:31;12.32;;;8.45;;
4244;SDS011;2136;48.502;9.194;2023-04-06T03:55:58;10.32;;;9.18;;
4244;SDS011;2136;48.502;9.194;2023-04-06T03:58:26;22.77;;;10.48;;
4244;SDS011;2136;48.502;9.194;2023-04-06T04:00:53;11.02;;;8.10;;
4244;SDS011;2136;48.502;9.194;2023-04-06T04:03:20;13.68;;;9.30;;
4244;SDS011;2136;48.502;9.194;2023-04-06T04:05:48;14.18;;;9.80;;
4244;SDS011;2136;48.502;9.194;2023-04-06T04:08:16;13.05;;;8.55;;
4244;SDS011;2136;48.502;9.194;2023-04-06T04:10:42;11.20;;;8.43;;
4244;SDS011;2136;48.502;9.194;2023-04-06T04:13:09;13.07;;;9.50;;
4244;SDS011;2136;48.502;9.194;2023-04-06T04:15:38;10.48;;;8.55;;
4244;SDS011;2136;48.502;9.194;2023-04-06T04:18:05;15.10;;;8.60;;
4244;SDS011;2136;48.502;9.194;2023-04-06T04:20:32;11.43;;;8.48;;
4244;SDS011;2136;48.502;9.194;2023-04-06T04:22:59;12.95;;;8.90;;
4244;SDS011;2136;48.502;9.194;2023-04-06T04:25:26;18.05;;;9.07;;
4244;SDS011;2136;48.502;9.194;2023-04-06T04:27:52;14.40;;;9.38;;
4244;SDS011;2136;48.502;9.194;2023-04-06T04:30:19;16.05;;;9.45;;
4244;SDS011;2136;48.502;9.194;2023-04-06T04:32:48;12.43;;;9.45;;
4244;SDS011;2136;48.502;9.194;2023-04-06T04:35:15;12.13;;;8.43;;
4244;SDS011;2136;48.502;9.194;2023-04-06T04:37:41;12.05;;;8.85;;
4244;SDS011;2136;48.502;9.194;2023-04-06T04:40:09;12.55;;;8.75;;
4244;SDS011;2136;48.502;9.194;2023-04-06T04:42:36;15.82;;;10.13;;
4244;SDS011;2136;48.502;9.194;2023-04-06T04:45:04;12.30;;;9.40;;
4244;SDS011;2136;48.502;9.194;2023-04-06T04:47:31;11.52;;;9.13;;
4244;SDS011;2136;48.502;9.194;2023-04-06T04:49:59;13.13;;;8.90;;
4244;SDS011;2136;48.502;9.194;2023-04-06T04:52:26;17.40;;;10.48;;
4244;SDS011;2136;48.502;9.194;2023-04-06T04:54:53;13.68;;;8.80;;
4244;SDS011;2136;48.502;9.194;2023-04-06T04:57:20;12.23;;;9.20;;
4244;SDS011;2136;48.502;9.194;2023-04-06T04:59:47;25.08;;;9.43;;
4244;SDS011;2136;48.502;9.194;2023-04-06T05:02:15;11.45;;;9.48;;
4244;SDS011;2136;48.502;9.194;2023-04-06T05:04:42;14.45;;;9.35;;
4244;SDS011;2136;48.502;9.194;2023-04-06T05:07:11;13.52;;;9.15;;
4244;SDS011;2136;48.502;9.194;2023-04-06T05:09:38;16.65;;;9.90;;
4244;SDS011;2136;48.502;9.194;2023-04-06T05:12:05;16.90;;;10.57;;
4244;SDS011;2136;48.502;9.194;2023-04-06T05:14:33;16.38;;;9.32;;
4244;SDS011;2136;48.502;9.194;2023-04-06T05:17:00;11.88;;;9.27;;
4244;SDS011;2136;48.502;9.194;2023-04-06T05:19:27;18.45;;;10.63;;
4244;SDS011;2136;48.502;9.194;2023-04-06T05:21:54;12.65;;;9.55;;
4244;SDS011;2136;48.502;9.194;2023-04-06T05:24:22;20.30;;;10.65;;
4244;SDS011;2136;48.502;9.194;2023-04-06T05:26:49;17.92;;;10.00;;
4244;SDS011;2136;48.502;9.194;2023-04-06T05:29:16;12.80;;;9.70;;
4244;SDS011;2136;48.502;9.194;2023-04-06T05:31:43;17.13;;;9.25;;
4244;SDS011;2136;48.502;9.194;2023-04-06T05:34:10;16.40;;;8.27;;
4244;SDS011;2136;48.502;9.194;2023-04-06T05:36:37;12.90;;;9.40;;
4244;SDS011;2136;48.502;9.194;2023-04-06T05:39:05;12.35;;;8.80;;
4244;SDS011;2136;48.502;9.194;2023-04-06T05:41:33;14.95;;;10.00;;
4244;SDS011;2136;48.502;9.194;2023-04-06T05:44:00;23.02;;;9.45;;
4244;SDS011;2136;48.502;9.194;2023-04-06T05:46:27;13.73;;;9.40;;
4244;SDS011;2136;48.502;9.194;2023-04-06T05:48:54;11.50;;;8.82;;
4244;SDS011;2136;48.502;9.194;2023-04-06T05:51:21;23.88;;;9.70;;
4244;SDS011;2136;48.502;9.194;2023-04-06T05:53:48;13.23;;;9.95;;
4244;SDS011;2136;48.502;9.194;2023-04-06T05:56:15;17.00;;;10.60;;
4244;SDS011;2136;48.502;9.194;2023-04-06T05:58:43;15.80;;;10.70;;
4244;SDS011;2136;48.502;9.194;2023-04-06T06:01:10;13.00;;;8.93;;
4244;SDS011;2136;48.502;9.194;2023-04-06T06:03:37;15.02;;;9.75;;
4244;SDS011;2136;48.502;9.194;2023-04-06T06:06:05;15.38;;;10.10;;
4244;SDS011;2136;48.502;9.194;2023-04-06T06:08:32;14.20;;;10.27;;
4244;SDS011;2136;48.502;9.194;2023-04-06T06:10:59;13.80;;;10.52;;
4244;SDS011;2136;48.502;9.194;2023-04-06T06:13:26;16.65;;;9.95;;
4244;SDS011;2136;48.502;9.194;2023-04-06T06:15:54;19.88;;;10.35;;
4244;SDS011;2136;48.502;9.194;2023-04-06T06:18:21;20.60;;;11.43;;
4244;SDS011;2136;48.502;9.194;2023-04-06T06:20:48;16.50;;;11.10;;
4244;SDS011;2136;48.502;9.194;2023-04-06T06:23:15;18.40;;;10.35;;
4244;SDS011;2136;48.502;9.194;2023-04-06T06:25:42;24.48;;;12.38;;
4244;SDS011;2136;48.502;9.194;2023-04-06T06:28:08;17.45;;;10.73;;
4244;SDS011;2136;48.502;9.194;2023-04-06T06:30:35;18.10;;;9.73;;
4244;SDS011;2136;48.502;9.194;2023-04-06T06:33:04;15.95;;;10.57;;
4244;SDS011;2136;48.502;9.194;2023-04-06T06:35:30;19.63;;;10.30;;
4244;SDS011;2136;48.502;9.194;2023-04-06T06:37:57;17.80;;;11.00;;
4244;SDS011;2136;48.502;9.194;2023-04-06T06:40:24;17.93;;;11.80;;
4244;SDS011;2136;48.502;9.194;2023-04-06T06:42:52;17.30;;;11.47;;
4244;SDS011;2136;48.502;9.194;2023-04-06T06:45:19;20.17;;;11.87;;
4244;SDS011;2136;48.502;9.194;2023-04-06T06:47:45;15.80;;;10.03;;
4244;SDS011;2136;48.502;9.194;2023-04-06T06:50:14;15.32;;;10.02;;
4244;SDS011;2136;48.502;9.194;2023-04-06T06:52:41;20.83;;;10.27;;
4244;SDS011;2136;48.502;9.194;2023-04-06T06:55:08;14.37;;;9.90;;
4244;SDS011;2136;48.502;9.194;2023-04-06T06:57:36;19.70;;;9.67;;
4244;SDS011;2136;48.502;9.194;2023-04-06T07:00:03;20.40;;;10.37;;
4244;SDS011;2136;48.502;9.194;2023-04-06T07:02:33;16.77;;;10.30;;
4244;SDS011;2136;48.502;9.194;2023-04-06T07:05:00;13.27;;;9.40;;
4244;SDS011;2136;48.502;9.194;2023-04-06T07:07:29;13.60;;;9.70;;
4244;SDS011;2136;48.502;9.194;2023-04-06T07:09:56;15.23;;;10.13;;
4244;SDS011;2136;48.502;9.194;2023-04-06T07:12:23;12.53;;;9.67;;
4244;SDS011;2136;48.502;9.194;2023-04-06T07:14:50;14.00;;;9.03;;
4244;SDS011;2136;48.502;9.194;2023-04-06T07:17:17;12.30;;;9.07;;
4244;SDS011;2136;48.502;9.194;2023-04-06T07:19:44;15.63;;;9.40;;
4244;SDS011;2136;48.502;9.194;2023-04-06T07:22:11;16.17;;;9.90;;
4244;SDS011;2136;48.502;9.194;2023-04-06T07:24:39;16.80;;;9.67;;
4244;SDS011;2136;48.502;9.194;2023-04-06T07:27:06;17.63;;;10.60;;
4244;SDS011;2136;48.502;9.194;2023-04-06T07:29:33;13.57;;;10.35;;
4244;SDS011;2136;48.502;9.194;2023-04-06T07:32:00;13.97;;;9.60;;
4244;SDS011;2136;48.502;9.194;2023-04-06T07:34:27;12.87;;;8.70;;
4244;SDS011;2136;48.502;9.194;2023-04-06T07:36:54;12.47;;;9.23;;
4244;SDS011;2136;48.502;9.194;2023-04-06T07:39:24;13.83;;;9.60;;
4244;SDS011;2136;48.502;9.194;2023-04-06T07:41:57;15.60;;;9.87;;
4244;SDS011;2136;48.502;9.194;2023-04-06T07:44:26;11.63;;;8.67;;
4244;SDS011;2136;48.502;9.194;2023-04-06T07:46:53;13.97;;;9.93;;
4244;SDS011;2136;48.502;9.194;2023-04-06T07:49:20;14.57;;;9.60;;
4244;SDS011;2136;48.502;9.194;2023-04-06T07:51:48;13.90;;;9.60;;
4244;SDS011;2136;48.502;9.194;2023-04-06T07:54:15;14.20;;;9.67;;
4244;SDS011;2136;48.502;9.194;2023-04-06T07:56:42;13.70;;;10.00;;
4244;SDS011;2136;48.502;9.194;2023-04-06T07:59:11;12.80;;;10.37;;
4244;SDS011;2136;48.502;9.194;2023-04-06T08:01:38;10.97;;;8.87;;
4244;SDS011;2136;48.502;9.194;2023-04-06T08:04:05;13.00;;;9.70;;
4244;SDS011;2136;48.502;9.194;2023-04-06T08:06:32;14.63;;;9.10;;
4244;SDS011;2136;48.502;9.194;2023-04-06T08:09:01;13.57;;;8.93;;
4244;SDS011;2136;48.502;9.194;2023-04-06T08:11:28;14.87;;;9.63;;
4244;SDS011;2136;48.502;9.194;2023-04-06T08:13:56;13.73;;;10.47;;
4244;SDS011;2136;48.502;9.194;2023-04-06T08:16:25;15.20;;;10.40;;
4244;SDS011;2136;48.502;9.194;2023-04-06T08:18:57;17.30;;;9.13;;
4244;SDS011;2136;48.502;9.194;2023-04-06T08:21:30;13.57;;;9.57;;
4244;SDS011;2136;48.502;9.194;2023-04-06T08:24:12;12.70;;;9.30;;
4244;SDS011;2136;48.502;9.194;2023-04-06T08:26:39;13.43;;;9.00;;
4244;SDS011;2136;48.502;9.194;2023-04-06T08:29:07;14.00;;;9.00;;
4244;SDS011;2136;48.502;9.194;2023-04-06T08:31:39;13.83;;;9.00;;
4244;SDS011;2136;48.502;9.194;2023-04-06T08:34:17;12.10;;;7.87;;
4244;SDS011;2136;48.502;9.194;2023-04-06T08:36:44;14.90;;;9.10;;
4244;SDS011;2136;48.502;9.194;2023-04-06T08:39:11;14.10;;;9.90;;
4244;SDS011;2136;48.502;9.194;2023-04-06T08:42:12;12.30;;;8.90;;
4244;SDS011;2136;48.502;9.194;2023-04-06T08:44:51;14.67;;;8.87;;
4244;SDS011;2136;48.502;9.194;2023-04-06T08:47:23;14.37;;;8.40;;
4244;SDS011;2136;48.502;9.194;2023-04-06T08:49:52;13.70;;;8.70;;
4244;SDS011;2136;48.502;9.194;2023-04-06T08:52:19;17.33;;;8.13;;
4244;SDS011;2136;48.502;9.194;2023-04-06T08:54:47;12.63;;;8.73;;
4244;SDS011;2136;48.502;9.194;2023-04-06T08:57:27;11.57;;;8.43;;
4244;SDS011;2136;48.502;9.194;2023-04-06T09:02:53;13.30;;;8.77;;
4244;SDS011;2136;48.502;9.194;2023-04-06T09:05:22;15.67;;;8.17;;
4244;SDS011;2136;48.502;9.194;2023-04-06T09:12:12;12.60;;;7.80;;
4244;SDS011;2136;48.502;9.194;2023-04-06T09:15:18;10.27;;;8.20;;
4244;SDS011;2136;48.502;9.194;2023-04-06T09:17:46;8.87;;;6.80;;
4244;SDS011;2136;48.502;9.194;2023-04-06T09:20:14;9.07;;;7.83;;
4244;SDS011;2136;48.502;9.194;2023-04-06T09:22:48;8.70;;;7.80;;
4244;SDS011;2136;48.502;9.194;2023-04-06T09:25:18;10.47;;;8.50;;
4244;SDS011;2136;48.502;9.194;2023-04-06T09:27:46;11.00;;;9.53;;
4244;SDS011;2136;48.502;9.194;2023-04-06T09:30:13;8.43;;;7.17;;
4244;SDS011;2136;48.502;9.194;2023-04-06T09:32:47;9.97;;;8.50;;
4244;SDS011;2136;48.502;9.194;2023-04-06T09:35:17;9.70;;;8.70;;
4244;SDS011;2136;48.502;9.194;2023-04-06T09:37:45;9.53;;;8.50;;
4244;SDS011;2136;48.502;9.194;2023-04-06T09:40:13;10.20;;;7.90;;
4244;SDS011;2136;48.502;9.194;2023-04-06T09:42:42;10.80;;;8.23;;
4244;SDS011;2136;48.502;9.194;2023-04-06T09:45:12;10.80;;;8.80;;
4244;SDS011;2136;48.502;9.194;2023-04-06T09:47:39;9.83;;;8.10;;
4244;SDS011;2136;48.502;9.194;2023-04-06T09:50:10;9.90;;;7.93;;
4244;SDS011;2136;48.502;9.194;2023-04-06T09:52:40;8.23;;;7.43;;
4244;SDS011;2136;48.502;9.194;2023-04-06T09:55:12;8.00;;;7.30;;
4244;SDS011;2136;48.502;9.194;2023-04-06T09:57:50;7.27;;;6.67;;
4244;SDS011;2136;48.502;9.194;2023-04-06T10:00:21;9.13;;;7.40;;
4244;SDS011;2136;48.502;9.194;2023-04-06T10:02:50;7.40;;;6.70;;
4244;SDS011;2136;48.502;9.194;2023-04-06T10:05:27;7.67;;;6.87;;
4244;SDS011;2136;48.502;9.194;2023-04-06T10:08:02;7.00;;;6.37;;
4244;SDS011;2136;48.502;9.194;2023-04-06T10:10:33;7.03;;;6.40;;
4244;SDS011;2136;48.502;9.194;2023-04-06T10:13:00;7.07;;;6.37;;
4244;SDS011;2136;48.502;9.194;2023-04-06T10:15:27;9.10;;;7.80;;
4244;SDS011;2136;48.502;9.194;2023-04-06T10:17:57;8.00;;;7.23;;
4244;SDS011;2136;48.502;9.194;2023-04-06T10:20:26;8.87;;;7.97;;
4244;SDS011;2136;48.502;9.194;2023-04-06T10:22:59;7.93;;;7.13;;
4244;SDS011;2136;48.502;9.194;2023-04-06T10:25:32;8.43;;;7.63;;
4244;SDS011;2136;48.502;9.194;2023-04-06T10:28:00;8.13;;;7.10;;
4244;SDS011;2136;48.502;9.194;2023-04-06T10:30:27;7.73;;;7.00;;
4244;SDS011;2136;48.502;9.194;2023-04-06T10:32:55;7.03;;;6.33;;
4244;SDS011;2136;48.502;9.194;2023-04-06T10:35:22;7.57;;;6.90;;
4244;SDS011;2136;48.502;9.194;2023-04-06T10:37:51;7.53;;;6.80;;
4244;SDS011;2136;48.502;9.194;2023-04-06T10:40:21;7.47;;;6.87;;
4244;SDS011;2136;48.502;9.194;2023-04-06T10:42:50;7.67;;;6.97;;
4244;SDS011;2136;48.502;9.194;2023-04-06T10:45:20;7.20;;;6.50;;
4244;SDS011;2136;48.502;9.194;2023-04-06T10:47:48;6.73;;;6.17;;
4244;SDS011;2136;48.502;9.194;2023-04-06T10:50:16;7.27;;;6.20;;
4244;SDS011;2136;48.502;9.194;2023-04-06T10:52:43;7.67;;;6.40;;
4244;SDS011;2136;48.502;9.194;2023-04-06T10:55:12;7.20;;;6.60;;
4244;SDS011;2136;48.502;9.194;2023-04-06T10:57:41;6.37;;;5.83;;
4244;SDS011;2136;48.502;9.194;2023-04-06T11:00:08;6.50;;;6.00;;
4244;SDS011;2136;48.502;9.194;2023-04-06T11:02:37;9.00;;;6.07;;
4244;SDS011;2136;48.502;9.194;2023-04-06T11:05:04;6.27;;;5.70;;
4244;SDS011;2136;48.502;9.194;2023-04-06T11:07:32;10.33;;;5.80;;
4244;SDS011;2136;48.502;9.194;2023-04-06T11:10:00;6.43;;;5.67;;
4244;SDS011;2136;48.502;9.194;2023-04-06T11:12:27;6.10;;;5.50;;
4244;SDS011;2136;48.502;9.194;2023-04-06T11:14:57;6.83;;;6.10;;
4244;SDS011;2136;48.502;9.194;2023-04-06T11:17:29;6.20;;;5.60;;
4244;SDS011;2136;48.502;9.194;2023-04-06T11:19:57;5.30;;;4.80;;
4244;SDS011;2136;48.502;9.194;2023-04-06T11:22:24;5.57;;;5.07;;
4244;SDS011;2136;48.502;9.194;2023-04-06T11:24:52;6.70;;;6.10;;
4244;SDS011;2136;48.502;9.194;2023-04-06T11:27:19;5.17;;;4.77;;
4244;SDS011;2136;48.502;9.194;2023-04-06T11:29:47;6.03;;;5.40;;
4244;SDS011;2136;48.502;9.194;2023-04-06T11:32:21;5.07;;;4.63;;
4244;SDS011;2136;48.502;9.194;2023-04-06T11:34:49;4.50;;;4.20;;
4244;SDS011;2136;48.502;9.194;2023-04-06T11:37:17;4.80;;;4.50;;
4244;SDS011;2136;48.502;9.194;2023-04-06T11:39:46;5.03;;;4.50;;
4244;SDS011;2136;48.502;9.194;2023-04-06T11:42:20;4.93;;;4.43;;
4244;SDS011;2136;48.502;9.194;2023-04-06T11:44:49;5.80;;;4.60;;
4244;SDS011;2136;48.502;9.194;2023-04-06T11:47:18;4.60;;;4.30;;
4244;SDS011;2136;48.502;9.194;2023-04-06T11:49:46;6.60;;;4.90;;
4244;SDS011;2136;48.502;9.194;2023-04-06T11:52:14;5.00;;;4.60;;
4244;SDS011;2136;48.502;9.194;2023-04-06T11:54:41;5.03;;;4.43;;
4244;SDS011;2136;48.502;9.194;2023-04-06T11:57:09;6.17;;;5.57;;
4244;SDS011;2136;48.502;9.194;2023-04-06T11:59:35;5.60;;;4.70;;
4244;SDS011;2136;48.502;9.194;2023-04-06T12:02:02;6.40;;;5.80;;
4244;SDS011;2136;48.502;9.194;2023-04-06T12:04:29;6.03;;;5.20;;
4244;SDS011;2136;48.502;9.194;2023-04-06T12:06:58;7.40;;;5.70;;
4244;SDS011;2136;48.502;9.194;2023-04-06T12:09:25;7.47;;;5.20;;
4244;SDS011;2136;48.502;9.194;2023-04-06T12:11:52;9.93;;;5.90;;
4244;SDS011;2136;48.502;9.194;2023-04-06T12:14:19;7.87;;;5.70;;
4244;SDS011;2136;48.502;9.194;2023-04-06T12:16:46;8.63;;;5.10;;
4244;SDS011;2136;48.502;9.194;2023-04-06T12:19:13;6.37;;;5.10;;
4244;SDS011;2136;48.502;9.194;2023-04-06T12:21:40;7.90;;;5.30;;
4244;SDS011;2136;48.502;9.194;2023-04-06T12:24:09;5.93;;;5.33;;
4244;SDS011;2136;48.502;9.194;2023-04-06T12:26:35;8.43;;;5.57;;
4244;SDS011;2136;48.502;9.194;2023-04-06T12:29:03;6.03;;;5.40;;
4244;SDS011;2136;48.502;9.194;2023-04-06T12:31:32;6.60;;;5.57;;
4244;SDS011;2136;48.502;9.194;2023-04-06T12:34:00;6.20;;;5.43;;
4244;SDS011;2136;48.502;9.194;2023-04-06T12:36:28;6.87;;;5.00;;
4244;SDS011;2136;48.502;9.194;2023-04-06T12:38:56;5.77;;;4.87;;
4244;SDS011;2136;48.502;9.194;2023-04-06T12:41:24;6.87;;;5.67;;
4244;SDS011;2136;48.502;9.194;2023-04-06T12:43:51;6.00;;;4.90;;
4244;SDS011;2136;48.502;9.194;2023-04-06T12:46:18;12.23;;;5.50;;
4244;SDS011;2136;48.502;9.194;2023-04-06T12:48:45;7.00;;;5.07;;
4244;SDS011;2136;48.502;9.194;2023-04-06T12:51:13;7.97;;;5.73;;
4244;SDS011;2136;48.502;9.194;2023-04-06T12:53:40;5.80;;;4.67;;
4244;SDS011;2136;48.502;9.194;2023-04-06T12:56:11;7.47;;;5.07;;
4244;SDS011;2136;48.502;9.194;2023-04-06T12:58:40;7.23;;;5.10;;
4244;SDS011;2136;48.502;9.194;2023-04-06T13:01:07;8.13;;;5.50;;
4244;SDS011;2136;48.502;9.194;2023-04-06T13:03:34;8.93;;;5.40;;
4244;SDS011;2136;48.502;9.194;2023-04-06T13:06:01;7.27;;;5.00;;
4244;SDS011;2136;48.502;9.194;2023-04-06T13:08:29;6.07;;;5.17;;
4244;SDS011;2136;48.502;9.194;2023-04-06T13:10:56;5.40;;;4.90;;
4244;SDS011;2136;48.502;9.194;2023-04-06T13:13:23;5.73;;;5.13;;
4244;SDS011;2136;48.502;9.194;2023-04-06T13:15:52;6.60;;;4.80;;
4244;SDS011;2136;48.502;9.194;2023-04-06T13:18:20;8.80;;;5.20;;
4244;SDS011;2136;48.502;9.194;2023-04-06T13:20:47;6.17;;;5.57;;
4244;SDS011;2136;48.502;9.194;2023-04-06T13:23:15;7.97;;;5.57;;
4244;SDS011;2136;48.502;9.194;2023-04-06T13:25:42;6.80;;;5.03;;
4244;SDS011;2136;48.502;9.194;2023-04-06T13:28:09;6.33;;;5.37;;
4244;SDS011;2136;48.502;9.194;2023-04-06T13:30:36;6.43;;;5.20;;
4244;SDS011;2136;48.502;9.194;2023-04-06T13:33:04;7.60;;;5.83;;
4244;SDS011;2136;48.502;9.194;2023-04-06T13:35:31;4.20;;;3.80;;
4244;SDS011;2136;48.502;9.194;2023-04-06T13:38:00;4.90;;;4.40;;
4244;SDS011;2136;48.502;9.194;2023-04-06T13:40:27;6.97;;;3.60;;
4244;SDS011;2136;48.502;9.194;2023-04-06T13:42:54;6.40;;;4.80;;
4244;SDS011;2136;48.502;9.194;2023-04-06T13:45:21;4.63;;;4.17;;
4244;SDS011;2136;48.502;9.194;2023-04-06T13:47:48;6.67;;;3.87;;
4244;SDS011;2136;48.502;9.194;2023-04-06T13:50:17;4.17;;;3.77;;
4244;SDS011;2136;48.502;9.194;2023-04-06T13:52:44;4.67;;;3.70;;
4244;SDS011;2136;48.502;9.194;2023-04-06T13:55:11;4.30;;;3.93;;
4244;SDS011;2136;48.502;9.194;2023-04-06T13:57:38;4.17;;;3.77;;
4244;SDS011;2136;48.502;9.194;2023-04-06T14:00:05;4.57;;;3.40;;
4244;SDS011;2136;48.502;9.194;2023-04-06T14:02:36;3.30;;;3.00;;
4244;SDS011;2136;48.502;9.194;2023-04-06T14:05:03;3.87;;;3.57;;
4244;SDS011;2136;48.502;9.194;2023-04-06T14:07:32;4.80;;;3.20;;
4244;SDS011;2136;48.502;9.194;2023-04-06T14:09:59;3.57;;;3.27;;
4244;SDS011;2136;48.502;9.194;2023-04-06T14:12:26;3.40;;;3.10;;
4244;SDS011;2136;48.502;9.194;2023-04-06T14:14:53;6.77;;;3.97;;
4244;SDS011;2136;48.502;9.194;2023-04-06T14:17:19;6.53;;;4.27;;
4244;SDS011;2136;48.502;9.194;2023-04-06T14:19:47;5.23;;;3.37;;
4244;SDS011;2136;48.502;9.194;2023-04-06T14:22:14;3.53;;;3.23;;
4244;SDS011;2136;48.502;9.194;2023-04-06T14:24:42;3.20;;;2.90;;
4244;SDS011;2136;48.502;9.194;2023-04-06T14:27:10;3.27;;;3.00;;
4244;SDS011;2136;48.502;9.194;2023-04-06T14:29:37;4.50;;;4.00;;
4244;SDS011;2136;48.502;9.194;2023-04-06T14:32:04;6.37;;;3.73;;
4244;SDS011;2136;48.502;9.194;2023-04-06T14:34:31;4.90;;;4.10;;
4244;SDS011;2136;48.502;9.194;2023-04-06T14:36:58;3.90;;;3.60;;
4244;SDS011;2136;48.502;9.194;2023-04-06T14:39:25;5.70;;;4.03;;
4244;SDS011;2136;48.502;9.194;2023-04-06T14:41:53;4.77;;;4.10;;
4244;SDS011;2136;48.502;9.194;2023-04-06T14:44:20;4.17;;;3.57;;
4244;SDS011;2136;48.502;9.194;2023-04-06T14:46:47;3.97;;;3.57;;
4244;SDS011;2136;48.502;9.194;2023-04-06T14:49:15;13.50;;;3.33;;
4244;SDS011;2136;48.502;9.194;2023-04-06T14:51:41;5.10;;;3.70;;
4244;SDS011;2136;48.502;9.194;2023-04-06T14:54:08;4.80;;;3.60;;
4244;SDS011;2136;48.502;9.194;2023-04-06T14:56:35;4.20;;;3.80;;
4244;SDS011;2136;48.502;9.194;2023-04-06T14:59:04;5.73;;;3.30;;
4244;SDS011;2136;48.502;9.194;2023-04-06T15:01:33;5.77;;;3.73;;
4244;SDS011;2136;48.502;9.194;2023-04-06T15:04:02;4.60;;;3.13;;
4244;SDS011;2136;48.502;9.194;2023-04-06T15:06:28;5.30;;;3.77;;
4244;SDS011;2136;48.502;9.194;2023-04-06T15:08:56;4.47;;;4.07;;
4244;SDS011;2136;48.502;9.194;2023-04-06T15:11:22;5.07;;;3.60;;
4244;SDS011;2136;48.502;9.194;2023-04-06T15:13:49;3.90;;;3.47;;
4244;SDS011;2136;48.502;9.194;2023-04-06T15:16:18;9.73;;;3.80;;